Hurghada, Egypt
Current Conditions -  °F | °C
As of 12:00 AM on Wednesday 26 Nov 2014 (Local Time) from HEGN Reporting Station
Clear Clear  
Wind Chill: 16°   Ceiling: Unl
Heat Index: 16°   Visibility: 6mi
Dew Point:   Wind: 3mph
Humidity: 63%   Direction: 300°WNW
Pressure: 30"   Gusts: NA
Location:  27.23°N, 33.83°E
Report Text: HEGN 252200Z 30003KT CAVOK 16/09 Q1016 NOSIG
Loading
Personal Weather Stations






























Interactive Weather Map New forecast layout! Learn more

10-Day Weather Forecast

Advertisements
Track Severe Weather on mobile